createdAt,value
2019-04-04T00:00:58.991Z,17.67
2019-04-04T00:03:28.584Z,17.73
2019-04-04T00:05:58.336Z,18.33
2019-04-04T00:08:30.747Z,16.97
2019-04-04T00:10:59.258Z,17.37
2019-04-04T00:13:28.864Z,16.70
2019-04-04T00:15:58.548Z,17.83
2019-04-04T00:18:28.153Z,16.87
2019-04-04T00:20:57.777Z,17.30
2019-04-04T00:23:27.398Z,14.67
2019-04-04T00:25:57.057Z,14.70
2019-04-04T00:28:26.673Z,15.90
2019-04-04T00:30:56.272Z,19.13
2019-04-04T00:33:26.355Z,19.23
2019-04-04T00:35:56.021Z,16.73
2019-04-04T00:38:25.637Z,15.87
2019-04-04T00:40:55.231Z,12.97
2019-04-04T00:43:24.851Z,18.10
2019-04-04T00:45:54.489Z,16.87
2019-04-04T00:48:24.274Z,15.47
2019-04-04T00:50:53.866Z,15.23
2019-04-04T00:53:23.636Z,18.43
2019-04-04T00:55:53.285Z,13.87
2019-04-04T00:58:22.903Z,15.17
2019-04-04T01:00:52.972Z,16.67
2019-04-04T01:03:23.899Z,16.63
2019-04-04T01:05:53.511Z,19.37
2019-04-04T01:08:23.176Z,17.10
2019-04-04T01:10:53.431Z,16.70
2019-04-04T01:13:23.639Z,16.67
2019-04-04T01:15:54.368Z,17.03
2019-04-04T01:18:24.057Z,18.53
2019-04-04T01:20:53.668Z,16.97
2019-04-04T01:23:23.262Z,19.67
2019-04-04T01:25:52.865Z,16.97
2019-04-04T01:28:22.457Z,24.40
2019-04-04T01:30:52.134Z,16.03
2019-04-04T01:33:21.746Z,17.43
2019-04-04T01:35:53.669Z,20.93
2019-04-04T01:38:22.701Z,15.73
2019-04-04T01:40:54.859Z,16.17
2019-04-04T01:43:23.789Z,19.73
2019-04-04T01:45:53.375Z,15.73
2019-04-04T01:48:23.073Z,16.70
2019-04-04T01:50:53.742Z,17.00
2019-04-04T01:53:23.920Z,18.37
2019-04-04T01:55:53.710Z,18.23
2019-04-04T01:58:23.397Z,15.07
2019-04-04T02:00:52.993Z,16.67
2019-04-04T02:03:23.350Z,18.40
2019-04-04T02:05:53.088Z,16.53
2019-04-04T02:08:22.678Z,17.07
2019-04-04T02:10:52.302Z,18.67
2019-04-04T02:13:21.890Z,15.27
2019-04-04T02:15:51.511Z,19.57
2019-04-04T02:18:23.293Z,20.27
2019-04-04T02:20:52.554Z,15.70
2019-04-04T02:23:22.143Z,14.70
2019-04-04T02:25:51.757Z,19.43
2019-04-04T02:28:21.375Z,14.97
2019-04-04T02:30:51.137Z,17.10
2019-04-04T02:33:20.762Z,16.53
2019-04-04T02:35:50.363Z,22.23
2019-04-04T02:38:19.943Z,16.33
2019-04-04T02:40:49.557Z,27.17
2019-04-04T02:43:19.148Z,20.20
2019-04-04T02:45:48.866Z,16.50
2019-04-04T02:48:23.362Z,21.80
2019-04-04T02:50:49.881Z,16.57
2019-04-04T02:53:20.495Z,15.07
2019-04-04T02:55:50.273Z,15.70
2019-04-04T02:58:20.068Z,14.63
2019-04-04T03:00:49.779Z,18.70
2019-04-04T03:03:19.414Z,15.23
2019-04-04T03:05:51.913Z,22.17
2019-04-04T03:08:20.314Z,22.67
2019-04-04T03:10:49.928Z,18.77
2019-04-04T03:13:19.519Z,18.70
2019-04-04T03:15:49.135Z,15.77
2019-04-04T03:18:18.756Z,16.80
2019-04-04T03:20:50.412Z,16.37
2019-04-04T03:23:19.710Z,18.20
2019-04-04T03:25:49.297Z,15.73
2019-04-04T03:28:18.918Z,19.83
2019-04-04T03:31:00.788Z,20.73
2019-04-04T03:33:19.869Z,16.40
2019-04-04T03:35:49.520Z,16.90
2019-04-04T03:38:19.450Z,17.13
2019-04-04T03:40:49.044Z,20.10
2019-04-04T03:43:18.639Z,17.67
2019-04-04T03:45:48.244Z,15.27
2019-04-04T03:48:18.780Z,16.83
2019-04-04T03:50:48.552Z,19.40
2019-04-04T03:53:19.839Z,20.90
2019-04-04T03:55:49.505Z,17.77
2019-04-04T03:58:19.123Z,17.70
2019-04-04T04:00:48.709Z,21.20
2019-04-04T04:03:22.404Z,22.53
2019-04-04T04:05:49.735Z,16.87
2019-04-04T04:08:22.006Z,17.40
2019-04-04T04:10:50.813Z,20.13
2019-04-04T04:13:20.418Z,16.80
2019-04-04T04:15:50.035Z,19.30
2019-04-04T04:18:21.430Z,22.10
2019-04-04T04:20:50.988Z,20.73
2019-04-04T04:23:23.936Z,31.53
2019-04-04T04:25:51.944Z,20.47
2019-04-04T04:28:21.534Z,21.03
2019-04-04T04:30:51.156Z,26.23
2019-04-04T04:33:20.751Z,24.70
2019-04-04T04:35:50.372Z,23.50
2019-04-04T04:38:19.968Z,22.87
2019-04-04T04:40:49.598Z,21.97
2019-04-04T04:43:19.195Z,20.97
2019-04-04T04:45:48.834Z,22.90
2019-04-04T04:48:18.493Z,20.17
2019-04-04T04:50:48.052Z,21.93
2019-04-04T04:53:18.926Z,21.53
2019-04-04T04:55:49.167Z,23.03
2019-04-04T04:58:18.762Z,21.20
2019-04-04T05:00:48.357Z,20.00
2019-04-04T05:03:18.034Z,25.70
2019-04-04T05:05:47.647Z,23.47
2019-04-04T05:08:17.259Z,18.77
2019-04-04T05:10:46.899Z,28.27
2019-04-04T05:13:16.538Z,20.93
2019-04-04T05:15:46.157Z,19.70
2019-04-04T05:18:16.405Z,21.63
2019-04-04T05:20:46.680Z,19.57
2019-04-04T05:23:16.372Z,28.13
2019-04-04T05:25:53.667Z,25.17
2019-04-04T05:28:17.322Z,36.37
2019-04-04T05:30:47.821Z,22.87
2019-04-04T05:33:17.528Z,23.10
2019-04-04T05:35:47.155Z,22.23
2019-04-04T05:38:16.785Z,19.73
2019-04-04T05:40:46.377Z,23.17
2019-04-04T05:43:15.978Z,23.73
2019-04-04T05:45:45.973Z,25.30
2019-04-04T05:48:15.578Z,22.73
2019-04-04T05:50:45.162Z,34.27
2019-04-04T05:53:14.796Z,36.53
2019-04-04T05:55:44.374Z,28.07
2019-04-04T05:58:14.010Z,35.40
2019-04-04T06:00:45.278Z,24.80
2019-04-04T06:03:15.937Z,30.50
2019-04-04T06:05:45.702Z,30.40
2019-04-04T06:08:15.309Z,26.23
2019-04-04T06:10:44.975Z,22.37
2019-04-04T06:13:14.782Z,23.87
2019-04-04T06:15:44.399Z,22.17
2019-04-04T06:18:14.024Z,25.23
2019-04-04T06:20:43.649Z,24.37
2019-04-04T06:23:13.328Z,18.30
2019-04-04T06:25:43.091Z,22.07
2019-04-04T06:28:12.765Z,31.47
2019-04-04T06:30:43.715Z,21.30
2019-04-04T06:33:13.467Z,24.37
2019-04-04T06:35:43.067Z,28.87
2019-04-04T06:38:12.689Z,19.33
2019-04-04T06:40:42.367Z,22.37
2019-04-04T06:43:12.131Z,21.17
2019-04-04T06:45:41.786Z,25.07
2019-04-04T06:48:11.457Z,21.50
2019-04-04T06:50:43.046Z,23.87
2019-04-04T06:53:12.620Z,25.97
2019-04-04T06:55:42.251Z,24.73
2019-04-04T06:58:11.887Z,24.03
2019-04-04T07:00:42.164Z,28.00
2019-04-04T07:03:11.953Z,26.23
2019-04-04T07:05:41.578Z,26.37
2019-04-04T07:08:11.185Z,32.50
2019-04-04T07:10:40.781Z,26.83
2019-04-04T07:13:21.578Z,33.90
2019-04-04T07:15:46.920Z,25.83
2019-04-04T07:18:15.221Z,28.23
2019-04-04T07:20:47.906Z,21.57
2019-04-04T07:23:16.196Z,22.27
2019-04-04T07:25:45.829Z,21.63
2019-04-04T07:28:16.849Z,23.83
2019-04-04T07:30:46.846Z,24.97
2019-04-04T07:33:16.469Z,22.77
2019-04-04T07:35:46.893Z,27.70
2019-04-04T07:38:17.420Z,24.43
2019-04-04T07:40:47.186Z,22.23
2019-04-04T07:43:17.098Z,19.63
2019-04-04T07:45:48.239Z,27.00
2019-04-04T07:48:18.576Z,24.67
2019-04-04T07:50:51.213Z,21.30
2019-04-04T07:53:19.673Z,23.37
2019-04-04T07:55:49.272Z,27.23
2019-04-04T07:58:18.907Z,26.40
2019-04-04T08:00:48.607Z,32.93
2019-04-04T08:03:18.231Z,28.33
2019-04-04T08:05:47.867Z,23.67
2019-04-04T08:08:17.729Z,23.10
2019-04-04T08:10:47.356Z,20.83
2019-04-04T08:13:16.957Z,25.70
2019-04-04T08:15:46.653Z,18.83
2019-04-04T08:18:16.311Z,22.60
2019-04-04T08:20:45.971Z,20.67
2019-04-04T08:23:15.572Z,22.67
2019-04-04T08:25:45.202Z,25.13
2019-04-04T08:28:14.799Z,22.53
2019-04-04T08:30:44.428Z,26.37
2019-04-04T08:33:14.077Z,24.73
2019-04-04T08:35:43.668Z,26.97
2019-04-04T08:38:13.300Z,24.63
2019-04-04T08:40:42.893Z,23.97
2019-04-04T08:43:12.496Z,22.63
2019-04-04T08:45:42.129Z,24.43
2019-04-04T08:48:11.758Z,29.40
2019-04-04T08:50:41.425Z,25.93
2019-04-04T08:53:11.054Z,22.73
2019-04-04T08:55:40.657Z,24.83
2019-04-04T08:58:10.293Z,30.70
2019-04-04T09:00:39.897Z,21.77
2019-04-04T09:03:09.522Z,25.70
2019-04-04T09:05:39.146Z,20.77
2019-04-04T09:08:08.758Z,26.13
2019-04-04T09:10:38.399Z,18.17
2019-04-04T09:13:08.033Z,27.03
2019-04-04T09:15:37.700Z,21.20
2019-04-04T09:18:07.403Z,26.27
2019-04-04T09:20:37.026Z,26.20
2019-04-04T09:23:06.657Z,22.37
2019-04-04T09:25:36.325Z,21.70
2019-04-04T09:28:06.320Z,18.77
2019-04-04T09:30:36.037Z,22.57
2019-04-04T09:33:05.866Z,21.10
2019-04-04T09:35:35.569Z,20.60
2019-04-04T09:38:05.338Z,24.13
2019-04-04T09:40:34.959Z,22.33
2019-04-04T09:43:04.629Z,20.93
2019-04-04T09:45:34.340Z,20.50
2019-04-04T09:48:04.008Z,18.20
2019-04-04T09:50:33.676Z,27.27
2019-04-04T09:53:03.316Z,19.40
2019-04-04T09:55:32.914Z,22.70
2019-04-04T09:58:02.546Z,24.37
2019-04-04T10:00:32.275Z,19.63
2019-04-04T10:03:02.113Z,19.87
2019-04-04T10:05:31.749Z,22.17
2019-04-04T10:08:01.345Z,23.60
2019-04-04T10:10:30.945Z,23.43
2019-04-04T10:13:00.577Z,24.53
2019-04-04T10:15:30.176Z,19.30
2019-04-04T10:17:59.807Z,21.17
2019-04-04T10:20:29.444Z,18.57
2019-04-04T10:22:59.064Z,20.67
2019-04-04T10:25:28.695Z,19.80
2019-04-04T10:27:58.295Z,17.70
2019-04-04T10:30:27.922Z,16.37
2019-04-04T10:32:57.525Z,18.00
2019-04-04T10:35:27.153Z,28.10
2019-04-04T10:37:56.756Z,21.67
2019-04-04T10:40:26.402Z,21.07
2019-04-04T10:42:55.999Z,18.83
2019-04-04T10:45:25.673Z,21.00
2019-04-04T10:47:55.860Z,16.47
2019-04-04T10:50:25.619Z,20.73
2019-04-04T10:52:55.243Z,19.90
2019-04-04T10:55:24.844Z,16.23
2019-04-04T10:57:54.469Z,18.57
2019-04-04T11:00:24.577Z,14.53
2019-04-04T11:02:55.104Z,13.40
2019-04-04T11:05:24.735Z,16.83
2019-04-04T11:07:56.827Z,20.67
2019-04-04T11:10:25.768Z,17.63
2019-04-04T11:12:55.362Z,21.03
2019-04-04T11:15:24.981Z,12.87
2019-04-04T11:17:54.602Z,22.83
2019-04-04T11:20:24.209Z,24.73
2019-04-04T11:22:53.844Z,19.73
2019-04-04T11:25:23.445Z,19.20
2019-04-04T11:27:53.145Z,13.70
2019-04-04T11:30:22.952Z,13.03
2019-04-04T11:32:52.550Z,11.67
2019-04-04T11:35:22.182Z,10.57
2019-04-04T11:37:51.844Z,9.43
2019-04-04T11:40:21.469Z,12.60
2019-04-04T11:42:51.065Z,13.10
2019-04-04T11:45:20.695Z,11.57
2019-04-04T11:47:50.292Z,11.47
2019-04-04T11:50:19.955Z,10.03
2019-04-04T11:52:49.579Z,17.93
2019-04-04T11:55:19.204Z,10.60
2019-04-04T11:57:48.843Z,12.40
2019-04-04T12:00:20.303Z,14.13
2019-04-04T12:02:49.912Z,18.13
2019-04-04T12:05:19.536Z,13.87
2019-04-04T12:07:49.160Z,14.13
2019-04-04T12:10:18.896Z,11.37
2019-04-04T12:17:58.827Z,21.43
2019-04-04T12:20:28.415Z,18.27
2019-04-04T12:22:58.123Z,16.43
2019-04-04T12:25:27.758Z,9.27
2019-04-04T12:27:57.416Z,11.93
2019-04-04T12:30:27.007Z,15.17
2019-04-04T12:32:56.645Z,11.67
2019-04-04T12:35:26.238Z,8.97
2019-04-04T12:37:55.878Z,10.40
2019-04-04T12:40:25.538Z,8.93
2019-04-04T12:42:55.175Z,14.30
2019-04-04T12:45:24.938Z,16.70
2019-04-04T12:47:54.572Z,9.90
2019-04-04T12:50:24.165Z,9.70
2019-04-04T12:52:53.807Z,14.80
2019-04-04T12:55:23.496Z,10.00
2019-04-04T12:57:53.109Z,16.13
2019-04-04T13:00:22.817Z,14.27
2019-04-04T13:02:52.416Z,12.13
2019-04-04T13:05:22.055Z,9.93
2019-04-04T13:07:51.689Z,10.93
2019-04-04T13:10:32.471Z,24.90
2019-04-04T13:12:52.808Z,13.80
2019-04-04T13:15:22.586Z,15.03
2019-04-04T13:17:52.185Z,11.37
2019-04-04T13:20:21.958Z,11.37
2019-04-04T13:22:51.550Z,12.57
2019-04-04T13:25:21.205Z,13.87
2019-04-04T13:27:50.799Z,12.30
2019-04-04T13:30:20.787Z,11.47
2019-04-04T13:32:50.417Z,12.67
2019-04-04T13:35:19.982Z,10.67
2019-04-04T13:37:49.627Z,14.60
2019-04-04T13:40:19.459Z,11.90
2019-04-04T13:42:52.751Z,16.40
2019-04-04T13:45:20.415Z,16.43
2019-04-04T13:47:50.054Z,13.70
2019-04-04T13:50:20.639Z,14.97
2019-04-04T13:52:50.375Z,15.73
2019-04-04T13:55:19.970Z,13.50
2019-04-04T13:57:49.612Z,19.47
2019-04-04T14:00:20.210Z,17.33
2019-04-04T14:02:49.850Z,13.37
2019-04-04T14:05:19.509Z,18.00
2019-04-04T14:07:49.521Z,15.70
2019-04-04T14:10:19.182Z,15.93
2019-04-04T14:12:48.823Z,13.37
2019-04-04T14:15:18.595Z,14.87
2019-04-04T14:17:48.374Z,13.83
2019-04-04T14:20:18.107Z,15.33
2019-04-04T14:22:50.417Z,12.97
2019-04-04T14:25:19.101Z,14.63
2019-04-04T14:27:48.693Z,16.37
2019-04-04T14:30:19.134Z,18.67
2019-04-04T14:32:48.734Z,13.10
2019-04-04T14:35:18.379Z,14.47
2019-04-04T14:37:48.011Z,14.10
2019-04-04T14:40:17.728Z,13.47
2019-04-04T14:42:47.387Z,14.77
2019-04-04T14:45:17.047Z,18.77
2019-04-04T14:47:46.852Z,14.37
2019-04-04T14:50:16.519Z,15.57
2019-04-04T14:52:46.167Z,19.70
2019-04-04T14:55:17.843Z,12.40
2019-04-04T14:57:47.124Z,16.60
2019-04-04T15:00:18.565Z,12.70
2019-04-04T15:02:48.946Z,14.17
2019-04-04T15:05:18.547Z,15.33
2019-04-04T15:07:48.191Z,18.00
2019-04-04T15:10:18.095Z,18.07
2019-04-04T15:12:47.810Z,13.97
2019-04-04T15:15:17.545Z,15.97
2019-04-04T15:17:47.184Z,16.43
2019-04-04T15:20:18.487Z,20.13
2019-04-04T15:22:48.068Z,13.47
2019-04-04T15:25:17.718Z,32.17
2019-04-04T15:27:47.305Z,12.70
2019-04-04T15:30:17.014Z,12.53
2019-04-04T15:32:46.610Z,18.57
2019-04-04T15:35:16.204Z,12.47
2019-04-04T15:37:45.841Z,13.00
2019-04-04T15:40:15.775Z,12.57
2019-04-04T15:42:45.417Z,13.40
2019-04-04T15:45:15.157Z,12.37
2019-04-04T15:47:44.792Z,11.67
2019-04-04T15:50:14.523Z,23.83
2019-04-04T15:52:44.159Z,12.20
2019-04-04T15:55:13.918Z,14.30
2019-04-04T15:57:43.591Z,13.73
2019-04-04T16:00:13.499Z,13.17
2019-04-04T16:02:43.172Z,13.47
2019-04-04T16:05:12.950Z,11.30
2019-04-04T16:07:42.542Z,12.17
2019-04-04T16:10:12.377Z,44.43
2019-04-04T16:12:42.014Z,12.73
2019-04-04T16:15:11.789Z,10.47
2019-04-04T16:17:41.443Z,10.47
2019-04-04T16:20:12.540Z,9.70
2019-04-04T16:22:42.275Z,15.47
2019-04-04T16:25:12.843Z,9.53
2019-04-04T16:27:44.211Z,13.43
2019-04-04T16:30:14.143Z,9.40
2019-04-04T16:32:43.791Z,10.40
2019-04-04T16:35:13.597Z,11.27
2019-04-04T16:37:43.225Z,9.40
2019-04-04T16:40:14.174Z,14.07
2019-04-04T16:42:43.833Z,11.23
2019-04-04T16:45:13.678Z,13.60
2019-04-04T16:47:43.278Z,10.47
2019-04-04T16:50:13.840Z,11.20
2019-04-04T16:52:43.543Z,10.97
2019-04-04T16:55:13.404Z,10.87
2019-04-04T16:57:43.451Z,13.20
2019-04-04T17:00:14.812Z,10.13
2019-04-04T17:02:44.451Z,10.67
2019-04-04T17:05:14.553Z,10.60
2019-04-04T17:07:44.230Z,14.53
2019-04-04T17:10:14.729Z,9.60
2019-04-04T17:12:44.378Z,11.77
2019-04-04T17:15:14.580Z,13.60
2019-04-04T17:17:44.228Z,12.03
2019-04-04T17:20:14.923Z,24.37
2019-04-04T17:22:44.600Z,10.73
2019-04-04T17:25:16.029Z,17.13
2019-04-04T17:27:45.874Z,12.47
2019-04-04T17:30:16.125Z,18.20
2019-04-04T17:32:48.487Z,11.93
2019-04-04T17:35:17.822Z,12.27
2019-04-04T17:37:47.605Z,11.17
2019-04-04T17:40:17.999Z,10.93
2019-04-04T17:42:47.826Z,10.53
2019-04-04T17:45:18.483Z,12.37
2019-04-04T17:47:48.782Z,14.27
2019-04-04T17:50:20.631Z,15.27
2019-04-04T17:52:50.555Z,11.63
2019-04-04T17:55:20.920Z,10.70
2019-04-04T17:57:51.044Z,13.87
2019-04-04T18:00:21.717Z,19.03
2019-04-04T18:02:51.399Z,15.13
2019-04-04T18:05:21.400Z,10.70
2019-04-04T18:07:51.127Z,14.10
2019-04-04T18:10:20.963Z,14.20
2019-04-04T18:12:50.645Z,24.87
2019-04-04T18:15:20.571Z,17.00
2019-04-04T18:17:50.252Z,11.60
2019-04-04T18:20:20.230Z,11.23
2019-04-04T18:22:49.910Z,8.90
2019-04-04T18:25:19.552Z,8.23
2019-04-04T18:27:49.237Z,9.50
2019-04-04T18:30:19.715Z,7.70
2019-04-04T18:32:49.361Z,12.33
2019-04-04T18:35:19.045Z,11.50
2019-04-04T18:37:48.728Z,13.80
2019-04-04T18:40:18.552Z,12.87
2019-04-04T18:42:53.603Z,13.40
2019-04-04T18:45:19.609Z,10.00
2019-04-04T18:47:49.285Z,14.07
2019-04-04T18:50:19.138Z,10.00
2019-04-04T18:52:48.777Z,8.97
2019-04-04T18:55:19.887Z,10.47
2019-04-04T18:57:49.915Z,9.83
2019-04-04T19:00:19.968Z,15.17
2019-04-04T19:02:49.728Z,18.40
2019-04-04T19:05:19.684Z,12.40
2019-04-04T19:07:49.400Z,14.07
2019-04-04T19:10:19.922Z,12.13
2019-04-04T19:12:49.600Z,12.13
2019-04-04T19:15:19.589Z,10.57
2019-04-04T19:17:49.230Z,12.00
2019-04-04T19:20:18.911Z,9.17
2019-04-04T19:22:48.661Z,10.43
2019-04-04T19:25:18.536Z,8.63
2019-04-04T19:27:48.237Z,9.40
2019-04-04T19:30:19.229Z,13.33
2019-04-04T19:32:49.083Z,15.80
2019-04-04T19:35:18.827Z,9.93
2019-04-04T19:37:59.393Z,11.87
2019-04-04T19:40:20.288Z,9.73
2019-04-04T19:42:50.077Z,14.43
2019-04-04T19:45:21.456Z,10.77
2019-04-04T19:47:51.259Z,9.93
2019-04-04T19:50:20.958Z,9.60
2019-04-04T19:52:50.711Z,12.87
2019-04-04T19:55:20.391Z,9.97
2019-04-04T19:57:50.075Z,10.23
2019-04-04T20:00:20.131Z,8.40
2019-04-04T20:02:49.812Z,11.20
2019-04-04T20:05:19.602Z,9.73
2019-04-04T20:07:49.281Z,9.83
2019-04-04T20:10:18.924Z,8.53
2019-04-04T20:12:48.562Z,9.27
2019-04-04T20:15:18.316Z,10.43
2019-04-04T20:17:47.956Z,9.23
2019-04-04T20:20:17.791Z,13.60
2019-04-04T20:22:47.428Z,11.90
2019-04-04T20:25:17.074Z,11.37
2019-04-04T20:27:54.693Z,12.70
2019-04-04T20:30:21.163Z,11.03
2019-04-04T20:32:50.937Z,8.80
2019-04-04T20:35:20.590Z,10.07
2019-04-04T20:37:50.231Z,14.80
2019-04-04T20:40:19.911Z,11.87
2019-04-04T20:42:49.592Z,10.83
2019-04-04T20:45:19.238Z,12.37
2019-04-04T20:47:48.984Z,13.13
2019-04-04T20:50:18.635Z,9.73
2019-04-04T20:52:48.306Z,11.70
2019-04-04T20:55:17.955Z,12.30
2019-04-04T20:57:47.637Z,10.60
2019-04-04T21:00:17.692Z,13.70
2019-04-04T21:02:47.372Z,11.37
2019-04-04T21:05:17.018Z,11.90
2019-04-04T21:07:46.699Z,13.73
2019-04-04T21:10:16.484Z,10.80
2019-04-04T21:12:46.167Z,15.37
2019-04-04T21:15:16.093Z,11.90
2019-04-04T21:17:45.731Z,10.33
2019-04-04T21:20:15.485Z,12.57
2019-04-04T21:22:45.118Z,13.83
2019-04-04T21:25:14.999Z,13.87
2019-04-04T21:27:44.643Z,13.33
2019-04-04T21:30:14.923Z,16.27
2019-04-04T21:32:44.605Z,14.93
2019-04-04T21:35:14.286Z,16.53
2019-04-04T21:37:43.935Z,12.20
2019-04-04T21:40:13.768Z,12.63
2019-04-04T21:42:43.450Z,12.43
2019-04-04T21:45:15.315Z,12.27
2019-04-04T21:47:44.847Z,11.83
2019-04-04T21:50:14.592Z,13.23
2019-04-04T21:52:44.225Z,10.60
2019-04-04T21:55:13.898Z,12.90
2019-04-04T21:57:43.571Z,13.97
2019-04-04T22:00:13.821Z,15.30
2019-04-04T22:02:43.505Z,13.10
2019-04-04T22:05:13.282Z,13.43
2019-04-04T22:07:42.921Z,13.20
2019-04-04T22:10:12.738Z,16.40
2019-04-04T22:12:42.369Z,9.87
2019-04-04T22:15:12.359Z,13.13
2019-04-04T22:17:42.072Z,13.13
2019-04-04T22:20:11.814Z,12.43
2019-04-04T22:22:41.458Z,16.27
2019-04-04T22:25:11.347Z,12.27
2019-04-04T22:27:40.982Z,13.50
2019-04-04T22:30:11.428Z,11.93
2019-04-04T22:32:41.108Z,12.60
2019-04-04T22:35:10.949Z,11.80
2019-04-04T22:37:40.618Z,12.83
2019-04-04T22:40:10.561Z,11.37
2019-04-04T22:42:40.231Z,11.80
2019-04-04T22:45:10.178Z,14.37
2019-04-04T22:47:39.843Z,17.77
2019-04-04T22:50:09.752Z,15.17
2019-04-04T22:52:39.474Z,11.47
2019-04-04T22:55:09.762Z,12.37
2019-04-04T22:57:39.400Z,13.93
2019-04-04T23:00:09.950Z,12.67
2019-04-04T23:02:39.715Z,12.20
2019-04-04T23:05:09.656Z,11.43
2019-04-04T23:07:39.332Z,12.37
2019-04-04T23:10:09.573Z,14.97
2019-04-04T23:12:39.242Z,15.07
2019-04-04T23:15:11.782Z,14.27
2019-04-04T23:17:41.456Z,20.63
2019-04-04T23:20:11.342Z,23.00
2019-04-04T23:22:52.206Z,16.03
2019-04-04T23:25:12.831Z,11.70
2019-04-04T23:27:44.142Z,12.20
2019-04-04T23:30:14.333Z,12.30
2019-04-04T23:32:43.954Z,11.77
2019-04-04T23:35:16.512Z,13.23
2019-04-04T23:37:45.054Z,12.00
2019-04-04T23:40:14.726Z,14.10
2019-04-04T23:42:44.361Z,14.33
2019-04-04T23:45:14.035Z,13.23
2019-04-04T23:47:43.762Z,12.47
2019-04-04T23:50:13.775Z,12.77
2019-04-04T23:52:43.410Z,11.93
2019-04-04T23:55:13.292Z,13.73
2019-04-04T23:57:42.927Z,11.33
